Terminal Aerodrome Forecast
Issued by NWS

Home | Current Version | Previous Version | Text Only | Print | Product List | Glossary On
Versions: 1 2 3 4 5 6 7 8 9 10 11 12 13 14 15 16 17 18
458
FTUS45 KABQ 221002 AAB
TAFGUP
TAF AMD
KGUP 221002Z 2210/2306 22010G18KT P6SM VCSH SCT015 OVC025
      TEMPO 2210/2214 1/2SM -SN FZFG OVC008
     FM221600 22007KT P6SM FEW035 BKN070
     FM221800 23018G28KT P6SM SCT080
     FM230200 22012KT P6SM SCT090=

USA.gov is the U.S. government's official web portal to all federal, state and local government web resources and services.